Time;durP1;ratioP1;P1;durP2;ratioP2;P2;SDS_P1;SDS_P2;PMS_P1;PMS_P2;Temp;Humidity;BMP_temperature;BMP_pressure;BME280_temperature;BME280_humidity;BME280_pressure;Samples;Min_cycle;Max_cycle;Signal;HPM_P1;HPM_P2
2021/09/18 00:00:32;;;;;;;;;;;;;;;18.15;62.60;99164.66;5012259;28;814;-55
2021/09/18 00:02:58;;;;;;;;;;;;;;;18.12;62.61;99166.38;5012225;28;799;-54
2021/09/18 00:05:24;;;;;;;;;;;;;;;18.07;62.78;99166.22;5011894;28;835;-55
2021/09/18 00:07:51;;;;;;;;;;;;;;;18.02;62.78;99172.44;5012024;28;949;-55
2021/09/18 00:10:17;;;;;;;;;;;;;;;18.04;62.86;99169.97;5012135;28;827;-55
2021/09/18 00:12:44;;;;;;;;;;;;;;;18.08;62.79;99174.13;5012042;28;1882;-54
2021/09/18 00:15:10;;;;;;;;;;;;;;;18.20;62.23;99175.22;5012106;28;881;-55
2021/09/18 00:17:37;;;;;;;;;;;;;;;18.30;61.83;99165.53;5011861;28;1346;-55
2021/09/18 00:20:04;;;;;;;;;;;;;;;18.37;61.57;99167.25;5012179;28;905;-55
2021/09/18 00:22:31;;;;;;;;;;;;;;;18.42;61.47;99157.44;5012029;28;834;-54
2021/09/18 00:24:57;;;;;;;;;;;;;;;18.43;61.35;99156.16;5012058;28;859;-55
2021/09/18 00:27:24;;;;;;;;;;;;;;;18.42;61.34;99146.25;5011865;28;962;-54
2021/09/18 00:29:51;;;;;;;;;;;;;;;18.39;61.46;99139.53;5012380;28;788;-55
2021/09/18 00:32:16;;;;;;;;;;;;;;;18.32;61.56;99135.06;5011885;28;1975;-55
2021/09/18 00:34:43;;;;;;;;;;;;;;;18.28;61.75;99139.28;5011759;28;858;-55
2021/09/18 00:37:10;;;;;;;;;;;;;;;18.25;61.58;99134.63;4994223;28;905;-54
2021/09/18 00:39:36;;;;;;;;;;;;;;;18.20;61.87;99124.88;5011743;28;583;-55
2021/09/18 00:42:02;;;;;;;;;;;;;;;18.12;61.96;99144.00;4994186;28;1332;-55
2021/09/18 00:44:29;;;;;;;;;;;;;;;18.09;61.93;99139.34;5011665;28;812;-54
2021/09/18 00:46:56;;;;;;;;;;;;;;;18.07;62.11;99141.84;5011605;28;876;-54
2021/09/18 00:49:23;;;;;;;;;;;;;;;18.05;62.18;99149.13;5011493;28;1280;-54
2021/09/18 00:51:49;;;;;;;;;;;;;;;17.98;62.17;99139.06;5011617;28;1886;-55
2021/09/18 00:54:16;;;;;;;;;;;;;;;17.80;62.78;99134.25;5011652;28;847;-54
2021/09/18 00:56:43;;;;;;;;;;;;;;;17.58;63.57;99128.84;5011544;28;823;-55
2021/09/18 00:59:10;;;;;;;;;;;;;;;17.50;63.73;99124.81;5011589;28;866;-55
2021/09/18 01:01:37;;;;;;;;;;;;;;;17.47;64.16;99131.31;5011544;28;811;-55
2021/09/18 01:04:04;;;;;;;;;;;;;;;17.45;64.28;99129.00;5011597;28;866;-54
2021/09/18 01:06:31;;;;;;;;;;;;;;;17.39;64.24;99132.88;5011450;28;874;-54
2021/09/18 01:08:58;;;;;;;;;;;;;;;17.26;64.91;99141.41;5011660;28;860;-56
2021/09/18 01:11:25;;;;;;;;;;;;;;;17.26;64.84;99139.41;5011343;28;1906;-55
2021/09/18 01:13:50;;;;;;;;;;;;;;;17.22;65.12;99132.41;4994067;28;787;-54
2021/09/18 01:16:18;;;;;;;;;;;;;;;17.14;65.45;99131.94;5012974;28;1062;-56
2021/09/18 01:18:45;;;;;;;;;;;;;;;17.17;65.30;99131.00;5015049;28;1455;-55
2021/09/18 01:21:12;;;;;;;;;;;;;;;17.19;65.28;99125.72;5015165;28;843;-55
2021/09/18 01:23:39;;;;;;;;;;;;;;;17.15;65.36;99119.53;5015067;28;876;-55
2021/09/18 01:26:07;;;;;;;;;;;;;;;16.99;65.90;99128.97;5014950;28;784;-55
2021/09/18 01:28:34;;;;;;;;;;;;;;;16.82;66.38;99136.84;4997436;28;903;-54
2021/09/18 01:31:01;;;;;;;;;;;;;;;16.73;66.71;99164.72;5015207;28;2053;-55
2021/09/18 01:33:28;;;;;;;;;;;;;;;16.72;66.87;99160.34;5014843;28;787;-55
2021/09/18 01:35:55;;;;;;;;;;;;;;;16.68;66.89;99156.91;5014893;28;870;-55
2021/09/18 01:38:21;;;;;;;;;;;;;;;16.60;67.32;99153.66;5014931;28;815;-55
2021/09/18 01:40:48;;;;;;;;;;;;;;;16.51;67.68;99143.25;5014630;28;947;-54
2021/09/18 01:43:15;;;;;;;;;;;;;;;16.52;68.41;99130.06;5014629;28;919;-55
2021/09/18 01:45:42;;;;;;;;;;;;;;;16.64;67.88;99126.41;5014827;28;958;-54
2021/09/18 01:48:10;;;;;;;;;;;;;;;16.80;67.36;99130.16;4997165;28;859;-55
2021/09/18 01:50:46;;;;;;;;;;;;;;;17.07;66.59;99132.22;5014521;28;1886;-55
2021/09/18 01:53:14;;;;;;;;;;;;;;;17.24;66.07;99133.50;5014539;28;968;-54
2021/09/18 01:55:41;;;;;;;;;;;;;;;17.23;66.43;99133.97;5014252;28;861;-55
2021/09/18 01:58:08;;;;;;;;;;;;;;;17.19;66.61;99133.34;5014579;28;846;-54
2021/09/18 02:00:39;;;;;;;;;;;;;;;17.23;66.38;99125.59;5014364;28;890;-55
2021/09/18 02:03:06;;;;;;;;;;;;;;;17.33;66.28;99130.72;5014300;28;922;-54
2021/09/18 02:05:32;;;;;;;;;;;;;;;17.41;66.12;99122.81;5014222;28;950;-55
2021/09/18 02:07:58;;;;;;;;;;;;;;;17.47;65.98;99125.75;5014488;28;803;-55
2021/09/18 02:10:26;;;;;;;;;;;;;;;17.52;65.92;99122.34;5014095;28;1886;-55
2021/09/18 02:12:53;;;;;;;;;;;;;;;17.56;65.71;99114.56;5014240;28;819;-54
2021/09/18 02:15:20;;;;;;;;;;;;;;;17.61;65.64;99113.16;5014155;28;862;-55
2021/09/18 02:17:47;;;;;;;;;;;;;;;17.65;65.25;99111.75;5014071;28;1195;-55
2021/09/18 02:20:15;;;;;;;;;;;;;;;17.62;65.24;99114.72;5014118;28;925;-55
2021/09/18 02:22:42;;;;;;;;;;;;;;;17.33;66.01;99102.00;5013967;28;943;-55
2021/09/18 02:25:10;;;;;;;;;;;;;;;17.10;66.98;99112.53;5013945;28;815;-54
2021/09/18 02:27:36;;;;;;;;;;;;;;;16.98;67.79;99109.88;5013681;28;827;-55
2021/09/18 02:30:04;;;;;;;;;;;;;;;16.90;68.25;99118.56;5013932;28;945;-55
2021/09/18 02:32:30;;;;;;;;;;;;;;;16.89;68.45;99127.41;5013782;28;1918;-54
2021/09/18 02:34:56;;;;;;;;;;;;;;;16.91;68.56;99122.13;5013949;28;867;-54
2021/09/18 02:37:23;;;;;;;;;;;;;;;16.96;68.68;99131.91;5013667;28;934;-55
2021/09/18 02:39:50;;;;;;;;;;;;;;;16.99;68.89;99136.59;5013702;28;826;-54
2021/09/18 02:42:17;;;;;;;;;;;;;;;17.08;68.75;99120.59;5013760;28;874;-55
2021/09/18 02:44:44;;;;;;;;;;;;;;;17.22;68.35;99115.66;5013588;28;823;-55
2021/09/18 02:47:09;;;;;;;;;;;;;;;17.33;68.08;99110.38;5013801;28;897;-53
2021/09/18 02:49:36;;;;;;;;;;;;;;;17.40;67.93;99123.25;5013478;28;851;-55
2021/09/18 02:52:02;;;;;;;;;;;;;;;17.38;68.29;99112.56;5013458;28;1890;-55
2021/09/18 02:54:28;;;;;;;;;;;;;;;17.39;68.04;99096.56;5013204;28;1150;-55
2021/09/18 02:56:55;;;;;;;;;;;;;;;17.39;68.01;99096.56;5013408;28;850;-55
2021/09/18 02:59:22;;;;;;;;;;;;;;;17.38;68.27;99156.47;5013352;28;808;-54
2021/09/18 03:01:48;;;;;;;;;;;;;;;17.36;68.16;99142.97;5013445;28;795;-55
2021/09/18 03:04:15;;;;;;;;;;;;;;;17.36;68.46;99137.38;5013187;28;847;-55
2021/09/18 03:06:42;;;;;;;;;;;;;;;17.52;68.17;99130.72;5013256;28;859;-56
2021/09/18 03:09:09;;;;;;;;;;;;;;;17.70;67.70;99127.13;5013225;28;889;-55
2021/09/18 03:11:35;;;;;;;;;;;;;;;17.80;67.17;99131.47;5013014;28;1882;-55
2021/09/18 03:14:02;;;;;;;;;;;;;;;17.87;67.10;99136.75;5012990;28;851;-55
2021/09/18 03:16:29;;;;;;;;;;;;;;;17.89;67.14;99136.28;5013149;28;1096;-55
2021/09/18 03:18:55;;;;;;;;;;;;;;;17.91;67.40;99123.38;5013039;28;840;-55
2021/09/18 03:21:22;;;;;;;;;;;;;;;17.94;67.35;99111.28;5013099;28;835;-55
2021/09/18 03:23:48;;;;;;;;;;;;;;;17.97;67.23;99109.56;5013071;28;851;-55
2021/09/18 03:26:15;;;;;;;;;;;;;;;17.97;67.21;99109.56;5013237;28;816;-55
2021/09/18 03:28:42;;;;;;;;;;;;;;;17.88;67.60;99101.16;5013326;28;815;-55
2021/09/18 03:31:08;;;;;;;;;;;;;;;17.78;68.02;99092.03;5013224;28;1910;-55
2021/09/18 03:33:35;;;;;;;;;;;;;;;17.76;68.09;99094.50;5013129;28;867;-55
2021/09/18 03:36:01;;;;;;;;;;;;;;;17.72;68.22;99097.47;5012837;28;873;-55
2021/09/18 03:38:28;;;;;;;;;;;;;;;17.65;68.39;99095.00;5012028;28;807;-55
2021/09/18 03:40:54;;;;;;;;;;;;;;;17.58;69.23;99095.31;5012541;28;830;-55
2021/09/18 03:43:21;;;;;;;;;;;;;;;17.51;69.52;99098.41;5012622;28;874;-55
2021/09/18 03:45:47;;;;;;;;;;;;;;;17.49;69.77;99092.53;4995031;28;874;-54
2021/09/18 03:48:14;;;;;;;;;;;;;;;17.51;69.59;99093.59;5012427;28;835;-55
2021/09/18 03:50:41;;;;;;;;;;;;;;;17.50;69.71;99089.28;5012247;28;1890;-55
2021/09/18 03:53:08;;;;;;;;;;;;;;;17.44;69.95;99085.56;5012539;28;823;-55
2021/09/18 03:55:35;;;;;;;;;;;;;;;17.40;70.15;99095.34;5012516;28;883;-55
2021/09/18 03:58:01;;;;;;;;;;;;;;;17.35;70.42;99091.16;5012310;28;862;-55
2021/09/18 04:00:27;;;;;;;;;;;;;;;17.32;70.51;99083.69;5012253;28;811;-55
2021/09/18 04:02:53;;;;;;;;;;;;;;;17.28;70.58;99094.25;5012073;28;863;-54
2021/09/18 04:05:20;;;;;;;;;;;;;;;17.22;70.65;99102.47;5012178;28;870;-55
2021/09/18 04:07:47;;;;;;;;;;;;;;;17.21;70.79;99106.50;5012079;28;894;-55
2021/09/18 04:10:14;;;;;;;;;;;;;;;17.24;70.89;99105.59;5012084;28;791;-55
2021/09/18 04:12:41;;;;;;;;;;;;;;;17.21;70.87;99111.31;5011989;28;1949;-54
2021/09/18 04:15:08;;;;;;;;;;;;;;;17.12;71.17;99114.88;5012077;28;811;-55
2021/09/18 04:17:33;;;;;;;;;;;;;;;17.05;71.43;99118.75;5011952;28;1238;-53
2021/09/18 04:20:00;;;;;;;;;;;;;;;17.06;71.43;99123.09;5012002;28;850;-55
2021/09/18 04:22:26;;;;;;;;;;;;;;;17.16;71.14;99129.47;5011810;28;876;-55
2021/09/18 04:24:53;;;;;;;;;;;;;;;17.22;71.05;99127.63;5011969;28;823;-55
2021/09/18 04:27:20;;;;;;;;;;;;;;;17.34;70.77;99131.47;5011874;28;890;-55
2021/09/18 04:29:47;;;;;;;;;;;;;;;17.42;70.54;99137.53;5011880;28;816;-54
2021/09/18 04:32:14;;;;;;;;;;;;;;;17.41;70.50;99136.78;5011741;28;2045;-53
2021/09/18 04:34:40;;;;;;;;;;;;;;;17.39;70.80;99138.47;5012033;28;791;-55
2021/09/18 04:37:07;;;;;;;;;;;;;;;17.42;71.23;99132.72;5011838;28;874;-55
2021/09/18 04:39:33;;;;;;;;;;;;;;;17.50;71.06;99128.38;5011689;28;795;-55
2021/09/18 04:41:59;;;;;;;;;;;;;;;17.59;71.20;99124.81;5011791;28;902;-55
2021/09/18 04:44:27;;;;;;;;;;;;;;;17.65;71.32;99127.75;5011781;28;918;-54
2021/09/18 04:46:53;;;;;;;;;;;;;;;17.71;71.15;99123.88;5011989;28;1241;-55
2021/09/18 04:49:20;;;;;;;;;;;;;;;17.83;70.85;99133.34;5011777;28;905;-55
2021/09/18 04:51:47;;;;;;;;;;;;;;;18.09;70.22;99127.38;5015615;28;1891;-55
2021/09/18 04:54:13;;;;;;;;;;;;;;;18.46;69.47;99130.81;5015672;28;854;-56
2021/09/18 04:56:39;;;;;;;;;;;;;;;18.90;68.33;99132.31;5015569;28;868;-56
2021/09/18 04:59:06;;;;;;;;;;;;;;;19.35;67.33;99130.44;5015565;28;871;-56
2021/09/18 05:01:33;;;;;;;;;;;;;;;19.78;66.20;99137.44;5015467;28;938;-56
2021/09/18 05:03:59;;;;;;;;;;;;;;;20.22;65.14;99132.31;5015488;28;837;-57
2021/09/18 05:06:26;;;;;;;;;;;;;;;20.55;63.73;99138.44;5015616;28;816;-56
2021/09/18 05:08:53;;;;;;;;;;;;;;;20.85;62.88;99135.59;5015396;28;846;-56
2021/09/18 05:16:29;;;;;;;;;;;;;;;21.41;60.21;99127.88;5733145;22;1617;-59
2021/09/18 05:18:57;;;;;;;;;;;;;;;21.53;60.12;99125.19;5015489;28;814;-59
2021/09/18 05:21:22;;;;;;;;;;;;;;;21.68;59.04;99133.53;5015231;28;802;-59
2021/09/18 05:23:52;;;;;;;;;;;;;;;21.91;58.21;99134.53;5015076;28;854;-59
2021/09/18 05:26:19;;;;;;;;;;;;;;;22.25;57.80;99140.47;5015054;28;858;-59
2021/09/18 05:28:45;;;;;;;;;;;;;;;22.75;55.91;99140.09;5015187;28;886;-59
2021/09/18 05:31:12;;;;;;;;;;;;;;;23.21;54.79;99153.16;5014863;28;1981;-59
2021/09/18 05:33:38;;;;;;;;;;;;;;;23.67;54.12;99149.22;5014963;28;799;-59
2021/09/18 05:36:04;;;;;;;;;;;;;;;23.98;52.84;99145.47;4997307;28;1292;-59
2021/09/18 05:38:31;;;;;;;;;;;;;;;23.98;52.54;99136.19;5014958;28;882;-59
2021/09/18 05:40:58;;;;;;;;;;;;;;;24.19;52.28;99131.84;5014815;28;863;-59
2021/09/18 05:43:25;;;;;;;;;;;;;;;24.38;51.58;99122.88;5015018;28;838;-59
2021/09/18 05:45:52;;;;;;;;;;;;;;;24.84;51.15;99122.31;5014612;28;878;-59
2021/09/18 05:48:18;;;;;;;;;;;;;;;25.16;49.45;99124.78;5014715;28;803;-59
2021/09/18 05:50:45;;;;;;;;;;;;;;;24.98;50.02;99131.00;5014587;28;1890;-59
2021/09/18 05:53:13;;;;;;;;;;;;;;;24.42;51.12;99126.97;5014544;28;881;-59
2021/09/18 05:55:39;;;;;;;;;;;;;;;23.92;52.33;99136.22;5014707;28;862;-59
2021/09/18 05:58:06;;;;;;;;;;;;;;;23.42;53.43;99134.78;5014769;28;807;-60
2021/09/18 06:00:33;;;;;;;;;;;;;;;23.03;54.57;99140.25;5014761;28;845;-59
2021/09/18 06:02:58;;;;;;;;;;;;;;;22.82;55.12;99148.81;5013747;28;823;-59
2021/09/18 06:05:25;;;;;;;;;;;;;;;22.71;55.77;99145.19;4996781;28;1448;-59
2021/09/18 06:07:51;;;;;;;;;;;;;;;22.63;56.08;99144.84;5014439;28;807;-59
2021/09/18 06:10:18;;;;;;;;;;;;;;;22.60;56.43;99141.00;5014315;28;823;-59
2021/09/18 06:12:44;;;;;;;;;;;;;;;22.63;56.09;99147.69;5014426;28;1981;-59
2021/09/18 06:15:12;;;;;;;;;;;;;;;22.77;56.24;99151.63;5014087;28;877;-59
2021/09/18 06:17:38;;;;;;;;;;;;;;;23.02;55.41;99153.59;5014074;28;1203;-59
2021/09/18 06:20:06;;;;;;;;;;;;;;;23.01;55.34;99160.47;4996530;28;1212;-60
2021/09/18 06:22:33;;;;;;;;;;;;;;;22.83;55.10;99152.44;5014023;28;860;-59
2021/09/18 06:24:59;;;;;;;;;;;;;;;22.57;55.41;99144.03;5013975;28;842;-59
2021/09/18 06:27:26;;;;;;;;;;;;;;;22.41;56.18;99148.28;5013975;28;799;-59
2021/09/18 06:29:52;;;;;;;;;;;;;;;22.22;56.36;99151.47;5013902;28;787;-59
2021/09/18 06:32:19;;;;;;;;;;;;;;;22.11;56.71;99145.72;5013833;28;1969;-59
2021/09/18 06:34:45;;;;;;;;;;;;;;;22.07;57.05;99147.22;5013887;28;799;-59
2021/09/18 06:37:12;;;;;;;;;;;;;;;22.00;57.33;99157.66;4996123;28;1608;-59
2021/09/18 06:39:39;;;;;;;;;;;;;;;21.97;57.42;99144.56;5014040;28;855;-59
2021/09/18 06:42:06;;;;;;;;;;;;;;;21.93;57.77;99143.25;5013688;28;803;-59
2021/09/18 06:44:31;;;;;;;;;;;;;;;21.91;58.01;99145.78;5013660;28;885;-59
2021/09/18 06:46:58;;;;;;;;;;;;;;;21.87;58.31;99153.66;5013549;28;918;-59
2021/09/18 06:49:24;;;;;;;;;;;;;;;21.80;58.76;99157.69;5013634;28;799;-59
2021/09/18 06:51:51;;;;;;;;;;;;;;;21.80;59.59;99154.88;5013510;28;1890;-59
2021/09/18 06:54:18;;;;;;;;;;;;;;;21.95;59.27;99151.94;5013590;28;858;-59
2021/09/18 06:56:45;;;;;;;;;;;;;;;22.18;58.73;99145.25;5013652;28;866;-59
2021/09/18 06:59:11;;;;;;;;;;;;;;;22.64;57.96;99149.22;5013574;28;787;-59
2021/09/18 07:01:38;;;;;;;;;;;;;;;23.18;56.59;99148.53;5013573;28;811;-59
2021/09/18 07:04:05;;;;;;;;;;;;;;;23.72;55.03;99151.25;5013468;28;866;-59
2021/09/18 07:06:31;;;;;;;;;;;;;;;24.14;54.26;99146.75;5013484;28;854;-59
2021/09/18 07:08:58;;;;;;;;;;;;;;;24.85;52.71;99152.09;5013362;28;858;-59
2021/09/18 07:11:24;;;;;;;;;;;;;;;25.32;50.96;99148.63;4995853;28;1886;-59
2021/09/18 07:13:51;;;;;;;;;;;;;;;25.95;49.11;99147.03;5012179;28;829;-59
2021/09/18 07:16:17;;;;;;;;;;;;;;;26.17;48.26;99151.00;5012992;28;1008;-59
2021/09/18 07:18:44;;;;;;;;;;;;;;;26.51;47.64;99147.88;5012950;28;1248;-59
2021/09/18 07:21:10;;;;;;;;;;;;;;;26.41;46.06;99148.19;5012942;28;786;-60
2021/09/18 07:23:37;;;;;;;;;;;;;;;26.33;46.51;99163.47;5012923;28;806;-60
2021/09/18 07:26:03;;;;;;;;;;;;;;;26.21;46.45;99166.41;5012866;28;818;-60
2021/09/18 07:28:30;;;;;;;;;;;;;;;26.14;46.79;99160.53;5012834;28;850;-59
2021/09/18 07:30:56;;;;;;;;;;;;;;;26.14;47.02;99164.16;5012711;28;1977;-59
2021/09/18 07:33:23;;;;;;;;;;;;;;;26.09;46.94;99170.59;5012756;28;807;-60
2021/09/18 07:35:49;;;;;;;;;;;;;;;26.58;45.74;99167.91;5012640;28;831;-60
2021/09/18 07:38:15;;;;;;;;;;;;;;;26.93;44.68;99169.13;5012708;28;873;-59
2021/09/18 07:40:42;;;;;;;;;;;;;;;26.27;46.46;99172.03;5012826;28;873;-59
2021/09/18 07:43:09;;;;;;;;;;;;;;;25.89;47.87;99166.13;5012546;28;795;-59
2021/09/18 07:45:36;;;;;;;;;;;;;;;26.10;47.20;99163.66;4994788;28;1303;-59
2021/09/18 07:48:02;;;;;;;;;;;;;;;26.81;45.80;99167.72;5012386;28;806;-59
2021/09/18 07:50:29;;;;;;;;;;;;;;;27.68;43.39;99160.00;5012551;28;834;-59
2021/09/18 07:52:56;;;;;;;;;;;;;;;28.56;41.69;99157.63;5012289;28;1882;-60
2021/09/18 07:55:22;;;;;;;;;;;;;;;29.08;40.16;99152.53;5012408;28;882;-60
2021/09/18 07:57:49;;;;;;;;;;;;;;;28.99;40.41;99152.97;5012572;28;852;-60
2021/09/18 08:00:15;;;;;;;;;;;;;;;28.35;41.17;99148.16;5012301;28;787;-60
2021/09/18 08:02:42;;;;;;;;;;;;;;;27.85;42.09;99147.63;5012228;28;814;-60
2021/09/18 08:05:10;;;;;;;;;;;;;;;27.47;43.40;99147.63;5012193;28;842;-60
2021/09/18 08:07:35;;;;;;;;;;;;;;;28.11;42.16;99132.78;5012155;28;800;-60
2021/09/18 08:10:02;;;;;;;;;;;;;;;28.96;40.86;99140.63;5012192;28;830;-60
2021/09/18 08:12:29;;;;;;;;;;;;;;;29.96;39.07;99133.38;5012032;28;1878;-60
2021/09/18 08:14:56;;;;;;;;;;;;;;;31.05;36.90;99139.41;4994363;28;1365;-59
2021/09/18 08:17:22;;;;;;;;;;;;;;;31.54;35.96;99132.81;5012052;28;1244;-60
2021/09/18 08:19:49;;;;;;;;;;;;;;;31.33;36.26;99140.69;5011924;28;903;-60
2021/09/18 08:22:16;;;;;;;;;;;;;;;31.10;35.76;99141.31;5012008;28;866;-60
2021/09/18 08:24:43;;;;;;;;;;;;;;;30.82;36.00;99130.66;5011711;28;854;-60
2021/09/18 08:27:10;;;;;;;;;;;;;;;30.72;36.00;99126.78;5011952;28;815;-60
2021/09/18 08:29:36;;;;;;;;;;;;;;;30.56;36.09;99128.78;5011891;28;862;-59
2021/09/18 08:32:04;;;;;;;;;;;;;;;30.24;37.10;99129.81;4994138;28;1973;-59
2021/09/18 08:34:30;;;;;;;;;;;;;;;29.98;37.04;99130.72;5011824;28;858;-59
2021/09/18 08:36:57;;;;;;;;;;;;;;;29.76;37.31;99129.16;5011794;28;850;-60
2021/09/18 08:39:24;;;;;;;;;;;;;;;29.88;37.28;99132.50;5011831;28;807;-59
2021/09/18 08:41:50;;;;;;;;;;;;;;;29.61;37.48;99131.81;5011684;28;890;-60
2021/09/18 08:44:25;;;;;;;;;;;;;;;29.08;37.92;99138.31;5011708;28;807;-60
2021/09/18 08:46:52;;;;;;;;;;;;;;;29.16;38.25;99139.22;5011624;28;975;-60
2021/09/18 08:49:18;;;;;;;;;;;;;;;29.03;37.94;99142.81;5011669;28;878;-60
2021/09/18 08:51:46;;;;;;;;;;;;;;;28.83;38.62;99138.53;5011870;28;1941;-59
2021/09/18 08:54:13;;;;;;;;;;;;;;;28.74;38.51;99138.94;5011679;28;849;-60
2021/09/18 08:56:39;;;;;;;;;;;;;;;28.70;38.33;99135.69;5011727;28;834;-60
2021/09/18 08:59:06;;;;;;;;;;;;;;;29.17;38.19;99126.53;5011595;28;831;-60
2021/09/18 09:01:33;;;;;;;;;;;;;;;29.52;37.29;99133.78;5011584;28;823;-60
2021/09/18 09:04:01;;;;;;;;;;;;;;;29.85;37.03;99140.09;5011869;28;819;-60
2021/09/18 09:06:49;;;;;;;;;;;;;;;30.08;36.74;99133.84;5011525;28;822;-60
2021/09/18 09:09:16;;;;;;;;;;;;;;;30.27;36.42;99139.34;5011457;28;889;-60
2021/09/18 09:11:50;;;;;;;;;;;;;;;30.33;35.96;99134.28;5011453;28;1882;-60
2021/09/18 09:14:17;;;;;;;;;;;;;;;30.43;35.87;99126.03;5011682;28;818;-60
2021/09/18 09:17:06;;;;;;;;;;;;;;;30.02;36.22;99128.28;5011599;28;1218;-60
2021/09/18 09:19:40;;;;;;;;;;;;;;;29.97;36.28;99123.47;5011694;28;838;-60
2021/09/18 09:22:06;;;;;;;;;;;;;;;30.45;35.65;99123.34;5011403;28;818;-60
2021/09/18 09:24:33;;;;;;;;;;;;;;;30.74;35.68;99124.91;5011372;28;865;-60
2021/09/18 09:27:10;;;;;;;;;;;;;;;30.53;35.06;99127.03;5011348;28;882;-60
2021/09/18 09:29:51;;;;;;;;;;;;;;;30.29;35.85;99126.09;5011336;28;806;-60
2021/09/18 09:32:26;;;;;;;;;;;;;;;30.47;35.22;99118.66;5011209;28;1972;-60
2021/09/18 09:34:53;;;;;;;;;;;;;;;30.68;35.37;99110.06;5011310;28;795;-60
2021/09/18 09:37:23;;;;;;;;;;;;;;;30.63;34.94;99101.66;5012717;28;881;-60
2021/09/18 09:39:53;;;;;;;;;;;;;;;30.63;35.08;99105.25;5015097;28;854;-60
2021/09/18 09:42:27;;;;;;;;;;;;;;;30.87;35.05;99109.03;5014669;28;858;-60
2021/09/18 09:45:08;;;;;;;;;;;;;;;30.90;35.15;99108.69;5014828;28;842;-60
2021/09/18 09:47:34;;;;;;;;;;;;;;;30.82;35.52;99098.53;5014805;28;859;-60
2021/09/18 09:50:03;;;;;;;;;;;;;;;30.87;35.01;99104.09;5014870;28;811;-60
2021/09/18 09:52:33;;;;;;;;;;;;;;;30.99;34.69;99089.53;5014603;28;1949;-60
2021/09/18 09:55:18;;;;;;;;;;;;;;;31.27;34.11;99083.00;5014547;28;799;-59
2021/09/18 09:57:46;;;;;;;;;;;;;;;31.55;33.08;99085.00;5014560;28;854;-59
2021/09/18 10:00:15;;;;;;;;;;;;;;;31.61;33.00;99090.56;5014585;28;819;-60
2021/09/18 10:02:42;;;;;;;;;;;;;;;31.33;33.17;99087.19;5014326;28;831;-60
2021/09/18 10:05:11;;;;;;;;;;;;;;;30.93;33.35;99093.28;5014372;28;866;-60
2021/09/18 10:07:38;;;;;;;;;;;;;;;31.64;32.34;99086.56;5014526;28;851;-60
2021/09/18 10:10:06;;;;;;;;;;;;;;;31.74;31.98;99091.16;5014257;28;791;-60
2021/09/18 10:12:33;;;;;;;;;;;;;;;32.00;32.46;99095.03;5014132;28;1878;-60
2021/09/18 10:18:03;;;;;;;;;;;;;;;31.78;32.21;99099.34;5013201;28;1189;-60
2021/09/18 10:23:19;;;;;;;;;;;;;;;30.69;33.85;99091.59;5014186;28;598;-60
2021/09/18 10:25:49;;;;;;;;;;;;;;;31.33;32.97;99075.03;5013915;28;844;-60
2021/09/18 10:28:24;;;;;;;;;;;;;;;32.18;31.20;99063.78;5013962;28;808;-59
2021/09/18 10:31:11;;;;;;;;;;;;;;;32.64;30.85;99052.34;4996212;28;1918;-60
2021/09/18 10:33:39;;;;;;;;;;;;;;;32.69;30.06;99065.66;5013777;28;834;-60
2021/09/18 10:36:06;;;;;;;;;;;;;;;32.64;30.24;99060.91;5013900;28;854;-60
2021/09/18 10:38:35;;;;;;;;;;;;;;;32.51;30.12;99061.88;5013661;28;881;-60
2021/09/18 10:41:08;;;;;;;;;;;;;;;32.70;30.68;99058.63;5013613;28;823;-60
2021/09/18 10:43:36;;;;;;;;;;;;;;;32.62;30.58;99052.16;5013914;28;819;-60
2021/09/18 10:58:29;;;;;;;;;;;;;;;32.77;30.56;99054.97;5013805;28;652;-60
2021/09/18 11:00:58;;;;;;;;;;;;;;;32.93;30.35;99055.69;5013289;28;858;-60
2021/09/18 11:03:50;;;;;;;;;;;;;;;33.22;29.76;99053.28;5013293;28;866;-60
2021/09/18 11:06:36;;;;;;;;;;;;;;;33.70;29.47;99052.50;5009668;28;1135;-60
2021/09/18 11:09:04;;;;;;;;;;;;;;;33.56;29.59;99055.63;5013515;28;779;-61
2021/09/18 11:11:31;;;;;;;;;;;;;;;33.35;28.88;99055.13;5013459;28;1963;-60
2021/09/18 11:13:59;;;;;;;;;;;;;;;33.01;29.12;99061.38;5013283;28;1315;-60
2021/09/18 11:16:27;;;;;;;;;;;;;;;32.66;29.78;99053.28;5013511;28;1301;-60
2021/09/18 11:19:15;;;;;;;;;;;;;;;32.38;30.31;99028.53;5013104;28;1447;-60
2021/09/18 11:21:43;;;;;;;;;;;;;;;32.85;30.40;99049.22;5013241;28;859;-61
2021/09/18 11:24:15;;;;;;;;;;;;;;;33.10;30.08;99041.53;5013042;28;831;-60
2021/09/18 11:26:44;;;;;;;;;;;;;;;32.75;30.33;99058.41;5013028;28;851;-60
2021/09/18 11:29:20;;;;;;;;;;;;;;;32.45;30.81;99047.75;5012814;28;1085;-60
2021/09/18 11:32:04;;;;;;;;;;;;;;;31.90;30.64;99043.38;5013025;28;1983;-60
2021/09/18 11:34:35;;;;;;;;;;;;;;;31.29;31.94;99054.66;5012912;28;813;-59
2021/09/18 11:37:03;;;;;;;;;;;;;;;31.19;32.72;99054.41;5012789;28;844;-59
2021/09/18 11:39:41;;;;;;;;;;;;;;;31.20;32.77;99053.09;5012679;28;906;-59
2021/09/18 11:42:16;;;;;;;;;;;;;;;31.31;32.02;99049.91;5012835;28;834;-59
2021/09/18 11:44:43;;;;;;;;;;;;;;;31.00;32.23;99037.59;5012547;28;866;-60
2021/09/18 11:47:10;;;;;;;;;;;;;;;30.70;32.96;99026.78;5012652;28;866;-59
2021/09/18 11:49:37;;;;;;;;;;;;;;;30.48;33.49;99026.09;5012503;28;844;-59
2021/09/18 11:52:04;;;;;;;;;;;;;;;30.72;32.97;99024.13;5012316;28;1890;-60
2021/09/18 11:54:32;;;;;;;;;;;;;;;31.35;32.62;99012.44;5012345;28;834;-60
2021/09/18 11:57:17;;;;;;;;;;;;;;;31.99;32.04;99016.38;5012505;28;815;-60
2021/09/18 11:59:45;;;;;;;;;;;;;;;32.30;31.22;99019.19;5011752;28;819;-60
2021/09/18 12:02:12;;;;;;;;;;;;;;;32.67;31.04;99014.00;5012280;28;815;-60
2021/09/18 12:04:44;;;;;;;;;;;;;;;32.91;30.45;99007.63;5012452;28;839;-60
2021/09/18 12:07:12;;;;;;;;;;;;;;;32.87;30.66;99009.34;5012941;28;768;-60
2021/09/18 12:09:39;;;;;;;;;;;;;;;33.20;30.35;99003.69;5012245;28;803;-58
2021/09/18 12:12:07;;;;;;;;;;;;;;;33.33;29.85;99006.31;5012228;28;1946;-58
2021/09/18 12:14:35;;;;;;;;;;;;;;;33.64;29.71;99011.84;5012303;28;784;-58
2021/09/18 12:17:13;;;;;;;;;;;;;;;33.41;29.78;99007.00;5012028;28;1230;-58
2021/09/18 12:19:41;;;;;;;;;;;;;;;33.30;29.66;99004.59;5012074;28;839;-58
2021/09/18 12:22:07;;;;;;;;;;;;;;;33.28;29.54;99004.41;5011939;28;858;-58
2021/09/18 12:24:37;;;;;;;;;;;;;;;33.25;29.48;98992.03;5011889;28;867;-58
2021/09/18 12:27:23;;;;;;;;;;;;;;;33.30;29.42;99002.47;5011917;28;800;-58
2021/09/18 12:29:56;;;;;;;;;;;;;;;33.80;28.87;98995.28;5011405;28;1167;-58
2021/09/18 12:32:23;;;;;;;;;;;;;;;34.14;28.15;99000.38;5012104;28;1918;-58
2021/09/18 12:34:50;;;;;;;;;;;;;;;34.25;27.35;98991.31;5011989;28;818;-58
2021/09/18 12:37:17;;;;;;;;;;;;;;;34.35;27.15;98988.50;5012315;28;823;-58
2021/09/18 12:39:44;;;;;;;;;;;;;;;34.33;27.13;98986.25;5011955;28;783;-58
2021/09/18 12:42:16;;;;;;;;;;;;;;;34.56;27.19;98980.25;5011983;28;843;-58
2021/09/18 12:44:43;;;;;;;;;;;;;;;35.28;25.80;98979.59;5011814;28;900;-58
2021/09/18 12:47:30;;;;;;;;;;;;;;;35.50;25.49;98966.25;5012084;28;802;-58
2021/09/18 12:50:14;;;;;;;;;;;;;;;35.19;26.33;98975.31;5011759;28;1317;-58
2021/09/18 12:52:41;;;;;;;;;;;;;;;35.03;26.13;98983.34;5011956;28;1886;-58
2021/09/18 12:55:08;;;;;;;;;;;;;;;34.34;26.78;98984.91;5012018;28;819;-58
2021/09/18 12:57:35;;;;;;;;;;;;;;;32.89;29.87;98981.69;5011870;28;866;-57
2021/09/18 13:00:08;;;;;;;;;;;;;;;31.67;32.11;98994.03;5012128;28;779;-58
2021/09/18 13:02:36;;;;;;;;;;;;;;;30.81;34.07;98985.75;5011571;28;846;-60
2021/09/18 13:05:03;;;;;;;;;;;;;;;30.17;36.04;98976.66;5011642;28;851;-60
2021/09/18 13:07:29;;;;;;;;;;;;;;;29.66;37.26;98977.16;5011493;28;946;-60
2021/09/18 13:09:58;;;;;;;;;;;;;;;29.38;38.03;98975.78;5011465;28;839;-60
2021/09/18 13:12:24;;;;;;;;;;;;;;;29.29;38.39;98981.94;5013074;28;1894;-60
2021/09/18 13:14:52;;;;;;;;;;;;;;;29.39;38.25;98985.81;5015364;28;914;-60
2021/09/18 13:17:31;;;;;;;;;;;;;;;29.91;37.57;98981.22;5015382;28;1391;-60
2021/09/18 13:20:03;;;;;;;;;;;;;;;30.80;36.00;98976.44;5015357;28;803;-60
2021/09/18 13:22:34;;;;;;;;;;;;;;;31.10;35.11;98975.06;5015150;28;886;-60
2021/09/18 13:25:01;;;;;;;;;;;;;;;31.07;35.42;98976.97;5015153;28;858;-59
2021/09/18 13:27:30;;;;;;;;;;;;;;;31.28;35.41;98982.53;5015119;28;810;-60
2021/09/18 13:29:56;;;;;;;;;;;;;;;31.69;34.50;98975.00;5015009;28;851;-60
2021/09/18 13:32:22;;;;;;;;;;;;;;;31.74;34.45;98973.28;5015019;28;1950;-59